Time;durP1;ratioP1;P1;durP2;ratioP2;P2;SDS_P1;SDS_P2;PMS_P1;PMS_P2;Temp;Humidity;BMP_temperature;BMP_pressure;BME280_temperature;BME280_humidity;BME280_pressure;Samples;Min_cycle;Max_cycle;Signal;HPM_P1;HPM_P2
2022/04/04 00:01:49;;;;;;;11.40;10.48;;;;;;;-1.49;100.00;102026.75;5126453;28;20346;-54
2022/04/04 00:04:20;;;;;;;12.65;11.70;;;;;;;-1.36;100.00;102036.97;5125934;28;20046;-53
2022/04/04 00:06:50;;;;;;;11.63;10.65;;;;;;;-1.39;100.00;102032.78;5126251;28;20125;-56
2022/04/04 00:09:20;;;;;;;12.35;11.43;;;;;;;-1.38;100.00;102038.91;5126044;28;20033;-54
2022/04/04 00:11:51;;;;;;;11.75;11.00;;;;;;;-1.42;100.00;102033.09;5126225;28;20029;-54
2022/04/04 00:14:22;;;;;;;11.32;10.43;;;;;;;-1.44;100.00;102035.03;5125865;28;20155;-54
2022/04/04 00:16:52;;;;;;;11.30;10.50;;;;;;;-1.49;100.00;102021.44;5126124;28;20047;-56
2022/04/04 00:19:23;;;;;;;12.02;11.07;;;;;;;-1.50;100.00;102030.38;5125935;28;20018;-55
2022/04/04 00:21:53;;;;;;;10.65;9.60;;;;;;;-1.53;100.00;102028.00;5126055;28;20031;-54
2022/04/04 00:24:24;;;;;;;10.70;9.50;;;;;;;-1.58;100.00;102022.31;5143006;28;20033;-54
2022/04/04 00:26:54;;;;;;;11.88;10.88;;;;;;;-1.61;100.00;102012.03;5126265;28;20061;-56
2022/04/04 00:29:25;;;;;;;12.05;11.05;;;;;;;-1.57;100.00;102018.69;5126109;28;20082;-56
2022/04/04 00:31:56;;;;;;;10.80;10.02;;;;;;;-1.62;100.00;102005.06;5126082;28;20060;-54
2022/04/04 00:34:26;;;;;;;11.90;11.10;;;;;;;-1.55;100.00;102006.13;5125653;28;20052;-55
2022/04/04 00:36:56;;;;;;;12.68;11.52;;;;;;;-1.53;100.00;102003.34;5125896;28;20050;-54
2022/04/04 00:39:27;;;;;;;12.80;11.48;;;;;;;-1.53;100.00;101998.88;5126033;28;20031;-54
2022/04/04 00:41:57;;;;;;;12.02;11.13;;;;;;;-1.51;100.00;101994.25;5126477;28;20031;-55
2022/04/04 00:44:28;;;;;;;12.50;11.48;;;;;;;-1.45;100.00;101990.19;5142651;28;20121;-56
2022/04/04 00:46:59;;;;;;;10.60;9.73;;;;;;;-1.48;100.00;101980.72;5125869;28;20501;-55
2022/04/04 00:49:29;;;;;;;12.07;10.35;;;;;;;-1.45;100.00;101984.88;5126001;28;20085;-53
2022/04/04 00:51:59;;;;;;;10.23;9.55;;;;;;;-1.46;100.00;101983.22;5126047;28;20490;-53
2022/04/04 00:54:30;;;;;;;12.00;11.07;;;;;;;-1.49;100.00;101979.06;5125367;28;20023;-54
2022/04/04 00:57:02;;;;;;;17.25;10.63;;;;;;;-1.53;100.00;101966.25;5125820;28;20503;-55
2022/04/04 00:59:33;;;;;;;10.18;9.13;;;;;;;-1.50;100.00;101965.97;5128235;28;20022;-55
2022/04/04 01:02:04;;;;;;;11.15;10.57;;;;;;;-1.49;100.00;101971.09;5147042;28;20030;-56
2022/04/04 01:04:35;;;;;;;9.75;8.98;;;;;;;-1.51;100.00;101966.94;5145172;28;20394;-56
2022/04/04 01:07:05;;;;;;;14.60;13.20;;;;;;;-1.53;100.00;101959.13;5129433;28;20078;-54
2022/04/04 01:09:36;;;;;;;11.57;10.60;;;;;;;-1.52;100.00;101954.69;5129332;28;20062;-55
2022/04/04 01:12:09;;;;;;;12.10;10.95;;;;;;;-1.52;100.00;101952.03;5129320;28;20476;-55
2022/04/04 01:14:45;;;;;;;12.02;9.27;;;;;;;-1.53;100.00;101955.66;5129028;28;20027;-57
2022/04/04 01:17:17;;;;;;;10.30;9.30;;;;;;;-1.48;100.00;101954.22;5129477;28;20023;-53
2022/04/04 01:19:48;;;;;;;9.80;9.10;;;;;;;-1.53;100.00;101937.13;5129233;28;20421;-56
2022/04/04 01:22:18;;;;;;;11.07;10.18;;;;;;;-1.48;100.00;101951.59;5129097;28;20051;-54
2022/04/04 01:24:50;;;;;;;11.05;10.25;;;;;;;-1.48;100.00;101945.44;5146140;28;20066;-53
2022/04/04 01:27:20;;;;;;;9.85;9.13;;;;;;;-1.50;100.00;101940.31;5129268;28;20026;-56
2022/04/04 01:29:51;;;;;;;8.63;7.93;;;;;;;-1.54;100.00;101932.81;5129053;28;20045;-53
2022/04/04 01:32:21;;;;;;;10.43;8.57;;;;;;;-1.51;100.00;101933.34;5129077;28;20136;-56
2022/04/04 01:38:18;;;;;;;8.15;7.57;;;;;;;-1.65;100.00;101917.97;5146669;28;20101;-52
2022/04/04 01:40:50;;;;;;;12.43;11.23;;;;;;;-1.92;100.00;101867.69;5128800;28;20019;-56
2022/04/04 01:43:21;;;;;;;8.10;7.63;;;;;;;-1.60;100.00;101910.41;5128555;28;20026;-53
2022/04/04 01:48:40;;;;;;;9.48;8.88;;;;;;;-1.77;100.00;101885.59;5146929;28;20042;-55
2022/04/04 01:51:11;;;;;;;12.77;10.23;;;;;;;-1.68;100.00;101891.78;5128884;28;20030;-53
2022/04/04 01:53:42;;;;;;;10.20;9.15;;;;;;;-1.67;100.00;101885.50;5128403;28;20045;-56
2022/04/04 01:56:12;;;;;;;8.32;7.72;;;;;;;-1.66;100.00;101884.50;5128697;28;20026;-54
2022/04/04 01:58:43;;;;;;;10.43;9.55;;;;;;;-1.65;100.00;101882.69;5128571;28;20034;-55
2022/04/04 02:01:19;;;;;;;11.98;10.27;;;;;;;-1.67;100.00;101879.38;5128555;28;20056;-53
2022/04/04 02:03:52;;;;;;;12.00;8.65;;;;;;;-1.69;100.00;101882.16;5143766;28;20035;-53
2022/04/04 02:06:23;;;;;;;10.93;10.13;;;;;;;-1.66;100.00;101871.28;5128559;28;20360;-55
2022/04/04 02:08:54;;;;;;;10.30;9.50;;;;;;;-1.66;100.00;101865.97;5128142;28;20408;-55
2022/04/04 02:11:25;;;;;;;8.85;8.15;;;;;;;-1.60;100.00;101859.25;5144605;28;20429;-57
2022/04/04 02:13:56;;;;;;;8.35;7.80;;;;;;;-1.58;100.00;101854.63;5143800;28;20023;-54
2022/04/04 02:16:26;;;;;;;9.27;8.35;;;;;;;-1.57;100.00;101851.84;5144345;28;20428;-53
2022/04/04 02:18:56;;;;;;;10.07;9.40;;;;;;;-1.51;100.00;101848.56;5128227;28;20034;-56
2022/04/04 02:21:27;;;;;;;13.45;9.05;;;;;;;-1.42;100.00;101842.34;5128189;28;20086;-55
2022/04/04 02:23:57;;;;;;;10.85;9.93;;;;;;;-1.55;100.00;101810.13;5145533;28;20115;-56
2022/04/04 02:26:28;;;;;;;10.52;9.70;;;;;;;-1.29;100.00;101838.47;5127863;28;20026;-56
2022/04/04 02:28:58;;;;;;;8.90;8.30;;;;;;;-1.26;100.00;101831.03;5127907;28;20022;-56
2022/04/04 02:31:29;;;;;;;10.20;9.45;;;;;;;-1.23;100.00;101832.56;5144093;28;20030;-57
2022/04/04 02:34:03;;;;;;;9.80;9.20;;;;;;;-1.21;100.00;101833.25;5127353;28;20018;-55
2022/04/04 02:36:33;;;;;;;9.15;8.45;;;;;;;-1.17;100.00;101818.69;5127773;28;20485;-54
2022/04/04 02:39:03;;;;;;;9.82;9.02;;;;;;;-1.24;100.00;101791.16;5143912;28;20029;-56
2022/04/04 02:41:34;;;;;;;8.18;7.47;;;;;;;-1.11;100.00;101800.31;5128576;28;20166;-53
2022/04/04 02:44:05;;;;;;;10.30;9.10;;;;;;;-1.04;100.00;101805.84;5128038;28;20061;-58
2022/04/04 02:46:35;;;;;;;10.75;10.05;;;;;;;-0.94;100.00;101797.78;5128480;28;20030;-55
2022/04/04 02:49:06;;;;;;;12.00;10.23;;;;;;;-0.89;100.00;101793.66;5128233;28;20035;-53
2022/04/04 02:51:36;;;;;;;9.20;8.35;;;;;;;-0.83;100.00;101790.34;5143883;28;20066;-54
2022/04/04 02:54:07;;;;;;;9.38;8.73;;;;;;;-0.80;100.00;101783.91;5143364;28;20019;-53
2022/04/04 02:56:41;;;;;;;8.57;8.07;;;;;;;-0.74;100.00;101778.81;5143458;28;20029;-56
2022/04/04 02:59:12;;;;;;;10.82;10.05;;;;;;;-0.68;100.00;101778.19;5127724;28;20057;-55
2022/04/04 03:01:48;;;;;;;11.10;10.32;;;;;;;-0.64;100.00;101778.69;5127304;28;20027;-55
2022/04/04 03:04:19;;;;;;;9.75;9.05;;;;;;;-0.60;100.00;101765.94;5126867;28;20085;-55
2022/04/04 03:06:49;;;;;;;9.80;8.95;;;;;;;-0.57;100.00;101762.94;5127409;28;20030;-57
2022/04/04 03:09:20;;;;;;;10.57;9.85;;;;;;;-0.53;100.00;101759.81;5127307;28;20029;-57
2022/04/04 03:11:50;;;;;;;11.35;10.50;;;;;;;-0.50;100.00;101759.50;5127216;28;20072;-55
2022/04/04 03:14:21;;;;;;;9.93;9.25;;;;;;;-0.49;100.00;101753.19;5126815;28;20117;-56
2022/04/04 03:16:51;;;;;;;11.75;9.82;;;;;;;-0.46;100.00;101746.72;5126982;28;20026;-56
2022/04/04 03:19:22;;;;;;;10.77;10.10;;;;;;;-0.47;100.00;101742.41;5127196;28;20544;-55
2022/04/04 03:21:54;;;;;;;10.02;9.18;;;;;;;-0.46;100.00;101733.47;5126546;28;20474;-54
2022/04/04 03:24:24;;;;;;;9.52;8.13;;;;;;;-0.66;100.00;101706.41;5126628;28;20113;-56
2022/04/04 03:26:55;;;;;;;10.10;9.43;;;;;;;-0.45;100.00;101724.50;5126945;28;20088;-55
2022/04/04 03:29:26;;;;;;;9.20;8.70;;;;;;;-0.47;100.00;101710.56;5126894;28;20027;-55
2022/04/04 03:31:56;;;;;;;11.82;10.90;;;;;;;-0.48;100.00;101716.88;5126662;28;20424;-55
2022/04/04 03:34:27;;;;;;;9.70;8.98;;;;;;;-0.44;100.00;101707.59;5126592;28;20158;-55
2022/04/04 03:36:57;;;;;;;10.90;10.00;;;;;;;-0.44;100.00;101700.47;5126922;28;20046;-54
2022/04/04 03:39:28;;;;;;;12.93;11.75;;;;;;;-0.41;100.00;101696.66;5126620;28;20116;-54
2022/04/04 03:41:59;;;;;;;10.93;9.90;;;;;;;-0.47;100.00;101670.78;5126701;28;20031;-52
2022/04/04 03:44:30;;;;;;;10.60;10.00;;;;;;;-0.32;100.00;101687.72;5126338;28;20109;-56
2022/04/04 03:47:00;;;;;;;11.23;10.20;;;;;;;-0.33;100.00;101685.25;5126482;28;20450;-55
2022/04/04 03:49:30;;;;;;;12.98;11.77;;;;;;;-0.47;100.00;101646.91;5126541;28;20149;-55
2022/04/04 03:52:01;;;;;;;12.23;11.20;;;;;;;-0.29;100.00;101671.47;5126404;28;20030;-54
2022/04/04 03:54:32;;;;;;;11.82;11.00;;;;;;;-0.31;100.00;101665.50;5126354;28;20031;-54
2022/04/04 03:57:03;;;;;;;11.55;10.80;;;;;;;-0.24;100.00;101661.19;5126454;28;20481;-58
2022/04/04 03:59:33;;;;;;;11.50;10.65;;;;;;;-0.23;100.00;101654.88;5142389;28;20038;-55
2022/04/04 04:02:04;;;;;;;10.90;10.25;;;;;;;-0.18;100.00;101639.28;5126439;28;20474;-54
2022/04/04 04:04:34;;;;;;;15.25;10.82;;;;;;;-0.10;100.00;101644.59;5143998;28;20026;-54
2022/04/04 04:07:06;;;;;;;12.52;11.60;;;;;;;0.01;100.00;101635.44;5144276;28;20093;-56
2022/04/04 04:09:37;;;;;;;11.25;10.20;;;;;;;-0.07;100.00;101612.41;5126173;28;20019;-54
2022/04/04 04:12:08;;;;;;;13.40;12.35;;;;;;;0.15;100.00;101634.75;5126060;28;20405;-52
2022/04/04 04:14:39;;;;;;;12.00;11.02;;;;;;;0.22;100.00;101634.94;5125794;28;20030;-52
2022/04/04 04:17:09;;;;;;;11.88;10.93;;;;;;;0.26;100.00;101623.81;5142113;28;20038;-52
2022/04/04 04:22:29;;;;;;;11.65;10.73;;;;;;;0.41;100.00;101625.75;5143616;28;20111;-53
2022/04/04 04:25:00;;;;;;;12.82;11.70;;;;;;;0.44;100.00;101618.25;5125854;28;20023;-54
2022/04/04 04:27:30;;;;;;;13.45;12.02;;;;;;;0.46;100.00;101618.09;5142312;28;20030;-55
2022/04/04 04:30:03;;;;;;;13.05;12.07;;;;;;;0.50;100.00;101624.72;5126459;28;20037;-53
2022/04/04 04:32:33;;;;;;;14.93;13.75;;;;;;;0.44;100.00;101597.00;5127832;28;20493;-53
2022/04/04 04:35:05;;;;;;;14.13;12.98;;;;;;;0.60;100.00;101615.53;5129809;28;20015;-54
2022/04/04 04:37:36;;;;;;;12.98;12.07;;;;;;;0.54;100.00;101594.16;5130275;28;20031;-55
2022/04/04 04:40:07;;;;;;;13.85;12.65;;;;;;;0.65;100.00;101605.22;5130196;28;20035;-54
2022/04/04 04:42:38;;;;;;;12.20;11.30;;;;;;;0.72;100.00;101596.56;5129945;28;20027;-53
2022/04/04 04:45:08;;;;;;;14.57;13.48;;;;;;;0.67;100.00;101579.28;5129424;28;20029;-53
2022/04/04 04:47:40;;;;;;;14.15;12.77;;;;;;;0.64;100.00;101570.84;5129892;28;20027;-55
2022/04/04 04:50:13;;;;;;;21.45;14.85;;;;;;;0.81;100.00;101579.56;5129625;28;20030;-54
2022/04/04 04:52:46;;;;;;;16.95;13.45;;;;;;;0.56;100.00;101531.03;5145782;28;20037;-55
2022/04/04 04:55:18;;;;;;;13.88;12.68;;;;;;;0.86;100.00;101566.59;5129515;28;20061;-56
2022/04/04 04:57:52;;;;;;;15.82;14.60;;;;;;;0.92;100.00;101564.03;5129695;28;20037;-54
2022/04/04 05:00:24;;;;;;;13.50;12.60;;;;;;;1.00;100.00;101564.00;5210995;23;20044;-83
2022/04/04 05:05:46;;;;;;;17.67;15.95;;;;;;;0.91;100.00;101540.28;5218154;28;20079;-86
2022/04/04 05:08:17;;;;;;;14.57;13.48;;;;;;;1.13;100.00;101558.09;5200567;28;20025;-84
2022/04/04 05:10:47;;;;;;;13.15;12.00;;;;;;;1.15;100.00;101552.59;5218065;28;20108;-84
2022/04/04 05:13:18;;;;;;;15.90;14.23;;;;;;;1.01;100.00;101522.25;5218423;28;20017;-85
2022/04/04 05:15:48;;;;;;;15.88;14.45;;;;;;;1.08;100.00;101531.19;5194500;28;20142;-83
2022/04/04 05:18:19;;;;;;;13.70;12.35;;;;;;;1.21;100.00;101535.91;5204596;28;20032;-83
2022/04/04 05:20:49;;;;;;;14.98;13.70;;;;;;;1.22;100.00;101524.25;5207863;28;20469;-83
2022/04/04 05:23:20;;;;;;;15.75;14.30;;;;;;;1.11;100.00;101506.91;5207488;28;20030;-82
2022/04/04 05:25:50;;;;;;;16.85;15.13;;;;;;;1.20;100.00;101519.13;5206660;28;20033;-82
2022/04/04 05:28:21;;;;;;;14.10;13.13;;;;;;;1.22;100.00;101508.31;5187993;28;20029;-85
2022/04/04 05:30:51;;;;;;;15.68;14.38;;;;;;;1.14;100.00;101489.75;5178948;28;20022;-84
2022/04/04 05:33:22;;;;;;;16.23;14.52;;;;;;;1.01;100.00;101445.13;5177447;28;20026;-83
2022/04/04 05:35:52;;;;;;;14.52;13.35;;;;;;;1.35;100.00;101495.22;5176373;28;20532;-84
2022/04/04 05:38:23;;;;;;;16.60;14.90;;;;;;;1.48;100.00;101499.91;5193957;28;20026;-84
2022/04/04 05:40:53;;;;;;;15.50;14.25;;;;;;;1.55;100.00;101491.03;5176350;28;20025;-85
2022/04/04 05:43:30;;;;;;;15.02;13.80;;;;;;;1.29;100.00;101434.75;5176836;28;20504;-85
2022/04/04 05:46:04;;;;;;;17.58;16.17;;;;;;;1.74;100.00;101487.00;5174926;28;20026;-83
2022/04/04 05:48:34;;;;;;;22.02;13.38;;;;;;;1.88;100.00;101507.50;5176886;28;20026;-85
2022/04/04 05:51:05;;;;;;;16.02;14.52;;;;;;;1.77;100.00;101470.66;5178136;28;20030;-84
2022/04/04 05:53:36;;;;;;;14.07;13.15;;;;;;;2.08;100.00;101490.97;5177444;28;20022;-84
2022/04/04 05:56:06;;;;;;;15.50;14.05;;;;;;;2.02;100.00;101452.59;5176974;28;20033;-84
2022/04/04 05:58:37;;;;;;;14.43;12.70;;;;;;;2.32;100.00;101485.31;5174469;28;20038;-81
2022/04/04 06:01:08;;;;;;;15.60;14.30;;;;;;;2.27;100.00;101445.94;5176577;28;20029;-83
2022/04/04 06:03:39;;;;;;;17.65;13.82;;;;;;;2.33;100.00;101449.66;5176536;28;20026;-84
2022/04/04 06:06:09;;;;;;;15.60;14.25;;;;;;;2.32;100.00;101416.03;5176939;28;20061;-82
2022/04/04 06:08:40;;;;;;;13.60;12.02;;;;;;;2.82;100.00;101459.63;5179393;28;20040;-82
2022/04/04 06:11:10;;;;;;;12.85;11.60;;;;;;;2.82;100.00;101427.63;5179114;28;20032;-84
2022/04/04 06:13:41;;;;;;;16.13;11.88;;;;;;;2.91;100.00;101426.47;5177823;28;20026;-84
2022/04/04 06:16:12;;;;;;;14.90;13.60;;;;;;;3.11;100.00;101438.16;5178805;28;20065;-83
2022/04/04 06:18:43;;;;;;;12.38;10.82;;;;;;;3.34;100.00;101432.56;5180330;28;20030;-82
2022/04/04 06:21:13;;;;;;;13.65;12.50;;;;;;;3.41;100.00;101411.28;5183695;28;20033;-84
2022/04/04 06:23:44;;;;;;;10.68;10.02;;;;;;;3.58;100.00;101420.59;5187364;28;20025;-82
2022/04/04 06:26:14;;;;;;;11.55;10.65;;;;;;;3.63;100.00;101410.16;5208217;28;20025;-83
2022/04/04 06:28:45;;;;;;;15.00;11.07;;;;;;;3.85;100.00;101414.38;5208755;28;20041;-82
2022/04/04 06:31:15;;;;;;;12.30;11.30;;;;;;;3.75;100.00;101376.56;5207079;28;20048;-82
2022/04/04 06:33:45;;;;;;;11.13;10.35;;;;;;;4.03;100.00;101416.53;5201352;28;20022;-82
2022/04/04 06:36:16;;;;;;;12.15;11.15;;;;;;;3.89;100.00;101377.41;5200370;28;20045;-84
2022/04/04 06:38:46;;;;;;;12.60;11.45;;;;;;;4.13;100.00;101421.50;5197060;28;20116;-84
2022/04/04 06:41:18;;;;;;;11.57;10.38;;;;;;;4.13;100.00;101406.28;5196869;28;20041;-84
2022/04/04 06:43:50;;;;;;;11.15;10.35;;;;;;;4.17;100.00;101398.69;5194912;28;20462;-86
2022/04/04 06:46:20;;;;;;;13.10;12.10;;;;;;;4.03;100.00;101384.47;5198083;28;20021;-83
2022/04/04 06:48:51;;;;;;;10.63;9.57;;;;;;;4.28;100.00;101403.47;5196974;28;20052;-84
2022/04/04 06:51:21;;;;;;;12.82;10.00;;;;;;;4.22;100.00;101388.22;5212712;28;20033;-84
2022/04/04 06:53:52;;;;;;;11.27;10.48;;;;;;;4.32;100.00;101367.28;5195153;28;20022;-84
2022/04/04 06:56:22;;;;;;;11.95;10.13;;;;;;;4.32;100.00;101349.41;5195696;28;20061;-82
2022/04/04 06:58:52;;;;;;;13.65;12.40;;;;;;;4.51;100.00;101371.84;5195719;28;20524;-82
2022/04/04 07:01:23;;;;;;;12.23;11.13;;;;;;;4.66;100.00;101369.78;5179994;28;20056;-83
2022/04/04 07:03:53;;;;;;;12.50;11.55;;;;;;;4.61;100.00;101340.16;5195534;28;20034;-84
2022/04/04 07:06:25;;;;;;;10.45;9.60;;;;;;;4.83;100.00;101358.69;5178791;28;20025;-83
2022/04/04 07:08:56;;;;;;;11.23;10.55;;;;;;;4.91;100.00;101339.75;5195618;28;20082;-83
2022/04/04 07:11:27;;;;;;;11.52;10.77;;;;;;;5.06;100.00;101351.88;5196524;28;20042;-83
2022/04/04 07:13:58;;;;;;;11.82;10.70;;;;;;;5.19;100.00;101342.19;5195738;28;20032;-83
2022/04/04 07:16:29;;;;;;;14.00;11.45;;;;;;;5.31;100.00;101341.34;5178369;28;20030;-83
2022/04/04 07:19:00;;;;;;;11.75;10.95;;;;;;;5.41;100.00;101322.97;5197891;28;20040;-83
2022/04/04 07:21:30;;;;;;;10.65;9.85;;;;;;;5.71;100.00;101330.50;5214089;28;20030;-84
2022/04/04 07:24:04;;;;;;;13.52;8.75;;;;;;;5.63;100.00;101311.97;5194379;28;20037;-83
2022/04/04 07:26:34;;;;;;;11.40;10.52;;;;;;;5.69;100.00;101305.78;5177209;28;20022;-83
2022/04/04 07:29:05;;;;;;;12.48;9.60;;;;;;;5.67;100.00;101281.88;5195686;28;20022;-84
2022/04/04 07:31:36;;;;;;;10.50;9.70;;;;;;;6.00;100.00;101318.44;5178171;28;20125;-83
2022/04/04 07:34:07;;;;;;;11.20;10.13;;;;;;;5.96;100.00;101285.88;5193781;28;20429;-82
2022/04/04 07:36:41;;;;;;;11.25;10.52;;;;;;;5.92;100.00;101257.84;5192439;28;20107;-83
2022/04/04 07:39:12;;;;;;;11.48;10.30;;;;;;;6.05;100.00;101257.78;5195965;28;20385;-84
2022/04/04 07:41:43;;;;;;;10.23;9.35;;;;;;;6.14;100.00;101246.78;5177176;28;20033;-83
2022/04/04 07:44:13;;;;;;;17.60;10.13;;;;;;;6.42;100.00;101260.59;5193249;28;20389;-83
2022/04/04 07:46:44;;;;;;;22.08;12.45;;;;;;;6.43;100.00;101243.44;5177309;28;20029;-84
2022/04/04 07:49:15;;;;;;;25.85;10.50;;;;;;;6.60;100.00;101239.19;5177354;28;20030;-84
2022/04/04 07:51:45;;;;;;;11.60;8.90;;;;;;;6.87;100.00;101268.47;5195175;28;20029;-84
2022/04/04 07:54:15;;;;;;;42.95;11.15;;;;;;;6.93;100.00;101259.53;5176327;28;20033;-85
2022/04/04 07:56:46;;;;;;;20.73;9.23;;;;;;;6.92;100.00;101253.34;5195267;28;20033;-83
2022/04/04 07:59:17;;;;;;;9.57;8.95;;;;;;;6.94;100.00;101227.06;5177666;28;20034;-84
2022/04/04 08:01:47;;;;;;;12.10;9.02;;;;;;;7.12;100.00;101250.44;5177790;28;20029;-84
2022/04/04 08:04:18;;;;;;;10.45;9.63;;;;;;;7.03;100.00;101219.53;5194522;28;20036;-83
2022/04/04 08:06:49;;;;;;;9.98;9.23;;;;;;;6.82;100.00;101226.16;5194578;28;20037;-84
2022/04/04 08:09:19;;;;;;;36.08;14.75;;;;;;;6.88;100.00;101214.56;5195379;28;20041;-84
2022/04/04 08:11:50;;;;;;;10.57;8.85;;;;;;;6.82;100.00;101214.63;5195718;28;20498;-85
2022/04/04 08:14:21;;;;;;;14.50;9.77;;;;;;;6.90;100.00;101228.56;5195802;28;20030;-84
2022/04/04 08:16:52;;;;;;;11.18;10.05;;;;;;;7.11;100.00;101254.16;5195847;28;20542;-84
2022/04/04 08:19:22;;;;;;;15.88;9.52;;;;;;;7.03;100.00;101235.66;5200892;28;20029;-84
2022/04/04 08:21:53;;;;;;;11.02;9.10;;;;;;;7.08;100.00;101209.78;5202929;28;20026;-82
2022/04/04 08:24:23;;;;;;;25.83;11.40;;;;;;;7.25;100.00;101211.84;5183744;28;20037;-85
2022/04/04 08:26:54;;;;;;;15.70;8.30;;;;;;;7.38;100.00;101220.56;5182851;28;20030;-85
2022/04/04 08:29:24;;;;;;;9.48;8.68;;;;;;;7.51;100.00;101221.47;5196682;28;20048;-85
2022/04/04 08:31:55;;;;;;;12.75;10.57;;;;;;;7.55;100.00;101201.94;5178470;28;20045;-84
2022/04/04 08:34:27;;;;;;;10.82;10.05;;;;;;;7.32;100.00;101188.41;5195636;28;20052;-83
2022/04/04 08:36:57;;;;;;;12.35;9.65;;;;;;;7.37;100.00;101189.38;5179354;28;20569;-82
2022/04/04 08:39:28;;;;;;;8.88;8.20;;;;;;;7.46;100.00;101216.75;5196996;28;20097;-85
2022/04/04 08:41:59;;;;;;;8.55;8.05;;;;;;;7.41;100.00;101198.63;5196720;28;20076;-85
2022/04/04 08:44:29;;;;;;;9.60;8.80;;;;;;;7.41;100.00;101189.75;5184751;28;20029;-82
2022/04/04 08:47:01;;;;;;;13.13;9.43;;;;;;;7.18;100.00;101131.38;5183976;28;20025;-85
2022/04/04 08:49:33;;;;;;;24.48;9.27;;;;;;;7.62;100.00;101181.19;5194762;28;20121;-85
2022/04/04 08:52:04;;;;;;;13.27;9.13;;;;;;;7.39;100.00;101152.34;5176838;28;20048;-84
2022/04/04 08:54:34;;;;;;;11.48;9.15;;;;;;;7.49;100.00;101191.31;5194381;28;20477;-83
2022/04/04 08:57:05;;;;;;;11.52;9.77;;;;;;;7.11;100.00;101144.88;5195476;28;20509;-84
2022/04/04 08:59:36;;;;;;;12.90;9.15;;;;;;;7.16;100.00;101205.16;5193408;28;20041;-84
2022/04/04 09:02:06;;;;;;;9.48;8.57;;;;;;;7.18;100.00;101176.19;5194502;28;20053;-85
2022/04/04 09:04:37;;;;;;;8.10;7.30;;;;;;;6.88;100.00;101149.31;5193956;28;20034;-84
2022/04/04 09:07:10;;;;;;;10.10;8.90;;;;;;;6.89;100.00;101143.72;5176329;28;20034;-84
2022/04/04 09:09:43;;;;;;;10.65;9.75;;;;;;;6.93;100.00;101149.44;5177306;28;20052;-86
2022/04/04 09:12:15;;;;;;;12.63;8.75;;;;;;;7.07;100.00;101165.16;5179990;28;20022;-85
2022/04/04 09:14:56;;;;;;;10.45;9.30;;;;;;;6.71;100.00;101106.94;5175653;28;20053;-86
2022/04/04 09:17:29;;;;;;;12.00;10.75;;;;;;;6.77;100.00;101099.88;5192499;28;20390;-84
2022/04/04 09:20:08;;;;;;;10.55;9.38;;;;;;;6.93;100.00;101141.41;5177353;28;20030;-85
2022/04/04 09:22:53;;;;;;;13.93;9.30;;;;;;;6.89;100.00;101146.41;5195641;28;20379;-84
2022/04/04 09:25:31;;;;;;;15.85;10.10;;;;;;;6.94;100.00;101140.31;5178483;28;20030;-82
2022/04/04 09:28:19;;;;;;;29.42;11.63;;;;;;;6.73;100.00;101109.41;5179120;28;20040;-83
2022/04/04 09:31:27;;;;;;;9.10;8.40;;;;;;;6.80;100.00;101139.69;5196711;28;20056;-82
2022/04/04 09:34:05;;;;;;;11.15;10.05;;;;;;;6.60;100.00;101107.72;5192798;28;20053;-82
2022/04/04 09:36:51;;;;;;;10.07;8.55;;;;;;;6.54;100.00;101131.91;5177070;28;20116;-81
2022/04/04 09:39:30;;;;;;;10.70;9.90;;;;;;;6.17;100.00;101105.03;5175688;28;20038;-81
2022/04/04 09:42:17;;;;;;;10.90;9.85;;;;;;;6.04;100.00;101110.56;5193359;28;20141;-81
2022/04/04 09:44:58;;;;;;;10.65;9.55;;;;;;;6.10;100.00;101113.16;5194048;28;20081;-83
2022/04/04 09:48:02;;;;;;;10.80;9.85;;;;;;;5.78;100.00;101084.72;5178217;28;20046;-82
2022/04/04 09:50:45;;;;;;;11.18;10.25;;;;;;;6.03;100.00;101122.31;5192770;28;20034;-82
2022/04/04 09:53:36;;;;;;;13.30;12.15;;;;;;;5.70;100.00;101079.66;5174025;28;20060;-84
2022/04/04 09:56:08;;;;;;;13.65;12.25;;;;;;;5.67;100.00;101082.78;5190993;28;20029;-81
2022/04/04 09:58:39;;;;;;;12.70;11.57;;;;;;;5.68;100.00;101113.91;5172259;28;20022;-81
2022/04/04 10:01:10;;;;;;;12.82;11.90;;;;;;;5.49;100.00;101130.91;5191106;28;20061;-82
2022/04/04 10:03:40;;;;;;;10.98;10.20;;;;;;;5.24;100.00;101088.00;5190223;28;20030;-83
2022/04/04 10:06:13;;;;;;;12.45;11.55;;;;;;;5.30;100.00;101108.56;5175068;28;20029;-83
2022/04/04 10:08:45;;;;;;;12.60;11.57;;;;;;;4.93;100.00;101057.50;5192776;28;20053;-83
2022/04/04 10:11:18;;;;;;;20.75;14.15;;;;;;;5.00;100.00;101071.69;5191870;28;20061;-83
2022/04/04 10:13:54;;;;;;;15.25;13.73;;;;;;;5.19;100.00;101107.41;5192612;28;20026;-83
2022/04/04 10:16:25;;;;;;;12.60;11.65;;;;;;;5.08;100.00;101097.38;5192812;28;20026;-82
2022/04/04 10:19:00;;;;;;;12.65;11.75;;;;;;;5.15;100.00;101100.84;5193120;28;20033;-84
2022/04/04 10:21:32;;;;;;;14.80;13.65;;;;;;;5.16;100.00;101099.81;5191640;28;20037;-84
2022/04/04 10:24:11;;;;;;;16.35;15.15;;;;;;;5.07;100.00;101082.34;5174986;28;20033;-82
2022/04/04 10:26:50;;;;;;;14.90;13.75;;;;;;;5.06;100.00;101097.59;5192844;28;20022;-82
2022/04/04 10:29:37;;;;;;;13.32;12.52;;;;;;;4.87;100.00;101068.25;5174928;28;20449;-82
2022/04/04 10:32:50;;;;;;;13.43;12.35;;;;;;;5.04;100.00;101088.13;5174756;28;20191;-82
2022/04/04 10:35:26;;;;;;;22.05;14.50;;;;;;;5.00;100.00;101073.53;5192185;28;20018;-82
2022/04/04 10:37:59;;;;;;;15.40;14.20;;;;;;;5.16;100.00;101091.78;5181509;28;20036;-84
2022/04/04 10:40:36;;;;;;;12.77;11.75;;;;;;;5.08;100.00;101066.09;5199060;28;20398;-82
2022/04/04 10:43:40;;;;;;;13.77;12.55;;;;;;;5.24;100.00;101086.16;5200029;28;20101;-84
2022/04/04 10:46:15;;;;;;;14.38;13.45;;;;;;;5.28;100.00;101078.50;5196505;28;20026;-84
2022/04/04 10:49:02;;;;;;;14.02;13.15;;;;;;;5.34;100.00;101086.50;5175488;28;20038;-83
2022/04/04 10:51:50;;;;;;;14.90;13.80;;;;;;;5.23;100.00;101081.00;5176123;28;20068;-81
2022/04/04 10:54:26;;;;;;;14.98;13.77;;;;;;;5.20;100.00;101076.91;5192893;28;20477;-82
2022/04/04 10:57:17;;;;;;;14.60;13.45;;;;;;;5.14;100.00;101072.44;5178077;28;20550;-83
2022/04/04 10:59:56;;;;;;;14.95;13.95;;;;;;;5.20;100.00;101076.91;5220678;23;20064;-61
2022/04/04 11:02:27;;;;;;;14.18;13.25;;;;;;;5.13;100.00;101084.19;5177746;28;20042;-58
2022/04/04 11:07:48;;;;;;;16.30;14.73;;;;;;;5.00;100.00;101082.38;5166144;28;20049;-58
2022/04/04 11:10:38;;;;;;;15.50;14.35;;;;;;;4.92;100.00;101081.81;5148764;28;20026;-59
2022/04/04 11:13:15;;;;;;;;;;;;;;;4.97;100.00;101071.28;5149017;28;20033;-58
2022/04/04 11:15:55;;;;;;;15.48;14.48;;;;;;;4.95;100.00;101073.34;5148572;28;19910;-59
2022/04/04 11:18:52;;;;;;;16.52;15.43;;;;;;;4.88;100.00;101060.03;5148581;28;20065;-57
2022/04/04 11:21:52;;;;;;;17.00;15.80;;;;;;;4.93;100.00;101062.03;5148473;28;20018;-60
2022/04/04 11:24:30;;;;;;;17.38;16.17;;;;;;;4.96;100.00;101050.91;5143134;28;20117;-57
2022/04/04 11:27:03;;;;;;;18.88;17.17;;;;;;;5.07;100.00;101056.41;5147843;28;20026;-59
2022/04/04 11:29:36;;;;;;;18.15;16.92;;;;;;;5.07;100.00;101052.91;5164993;28;20026;-58
2022/04/04 11:32:15;;;;;;;16.48;15.32;;;;;;;5.13;100.00;101057.41;5168033;28;20054;-59
2022/04/04 11:34:46;;;;;;;16.33;14.95;;;;;;;5.21;100.00;101038.41;5167754;28;20464;-59
2022/04/04 11:37:19;;;;;;;15.52;14.52;;;;;;;5.22;100.00;101045.38;5168158;28;20045;-59
2022/04/04 11:39:53;;;;;;;17.65;16.45;;;;;;;5.35;100.00;101037.28;5167865;28;20037;-59
2022/04/04 11:42:25;;;;;;;19.08;17.15;;;;;;;5.25;100.00;101003.97;5166605;28;20713;-59
2022/04/04 11:44:55;;;;;;;18.52;16.52;;;;;;;5.37;100.00;101024.50;5167196;28;20032;-58
2022/04/04 11:47:26;;;;;;;17.25;16.05;;;;;;;5.27;100.00;101024.16;5167778;28;20022;-58
2022/04/04 11:50:01;;;;;;;14.10;13.15;;;;;;;5.26;100.00;101014.47;5166836;28;20041;-59